createdAt,value
2022-11-17T00:00:34.892Z,3
2022-11-17T00:05:34.929Z,2.7
2022-11-17T00:10:34.926Z,5.8
2022-11-17T00:15:34.908Z,4
2022-11-17T00:20:34.951Z,4
2022-11-17T00:25:34.919Z,4
2022-11-17T00:30:34.930Z,4.2
2022-11-17T00:35:34.935Z,4.2
2022-11-17T00:40:34.917Z,3.8
2022-11-17T00:45:34.925Z,4.9
2022-11-17T00:50:34.904Z,3.8
2022-11-17T00:55:34.974Z,3.8
2022-11-17T01:00:34.907Z,3.3
2022-11-17T01:05:34.930Z,4
2022-11-17T01:10:34.912Z,3.4
2022-11-17T01:15:34.949Z,3.5
2022-11-17T01:20:34.953Z,4.3
2022-11-17T01:25:35.015Z,4.3
2022-11-17T01:30:34.995Z,4.3
2022-11-17T01:35:35.015Z,3.3
2022-11-17T01:40:34.989Z,5.6
2022-11-17T01:45:34.999Z,4.4
2022-11-17T01:50:35.005Z,4.3
2022-11-17T01:55:34.971Z,4.3
2022-11-17T02:00:35.005Z,4
2022-11-17T02:05:34.996Z,4.4
2022-11-17T02:10:35.028Z,3.9
2022-11-17T02:15:35.026Z,4.4
2022-11-17T02:20:35.015Z,3.3
2022-11-17T02:25:35.006Z,3.3
2022-11-17T02:30:35.004Z,4.1
2022-11-17T02:35:35.036Z,3
2022-11-17T02:40:35.024Z,3.1
2022-11-17T02:45:35.021Z,2.7
2022-11-17T02:50:35.020Z,3.3
2022-11-17T02:55:35.029Z,3.3
2022-11-17T03:00:35.014Z,2.8
2022-11-17T03:05:35.029Z,2.3
2022-11-17T03:10:35.023Z,2.6
2022-11-17T03:15:35.022Z,2.8
2022-11-17T03:20:35.021Z,3.5
2022-11-17T03:25:35.023Z,3.5
2022-11-17T03:30:37.556Z,3
2022-11-17T03:35:35.034Z,3.5
2022-11-17T03:40:35.043Z,2.6
2022-11-17T03:45:35.023Z,2.7
2022-11-17T03:50:35.035Z,2.2
2022-11-17T03:55:35.043Z,2.2
2022-11-17T04:00:35.030Z,2.3
2022-11-17T04:05:35.022Z,3.2
2022-11-17T04:10:35.031Z,2.7
2022-11-17T04:15:35.025Z,3.1
2022-11-17T04:20:35.047Z,2.8
2022-11-17T04:25:35.041Z,2.8
2022-11-17T04:30:35.009Z,3
2022-11-17T04:35:35.044Z,3.2
2022-11-17T04:40:35.025Z,4
2022-11-17T04:45:35.084Z,3.1
2022-11-17T04:50:35.053Z,3.4
2022-11-17T04:55:35.054Z,3.4
2022-11-17T05:00:35.088Z,4.5
2022-11-17T05:05:35.073Z,4.9
2022-11-17T05:10:35.173Z,4.4
2022-11-17T05:15:35.095Z,4.2
2022-11-17T05:20:35.071Z,5
2022-11-17T05:25:35.097Z,5
2022-11-17T05:30:35.092Z,4
2022-11-17T05:35:35.104Z,4.7
2022-11-17T05:40:35.093Z,5
2022-11-17T05:45:35.098Z,5.2
2022-11-17T05:50:35.093Z,4.3
2022-11-17T05:55:35.090Z,4.3
2022-11-17T06:00:35.093Z,4.3
2022-11-17T06:05:35.082Z,4
2022-11-17T06:10:35.076Z,3.9
2022-11-17T06:15:35.093Z,4.7
2022-11-17T06:20:35.095Z,5.1
2022-11-17T06:25:35.096Z,5.1
2022-11-17T06:30:35.122Z,3.9
2022-11-17T06:35:35.109Z,3.2
2022-11-17T06:40:35.106Z,3.9
2022-11-17T06:45:35.135Z,4.5
2022-11-17T06:55:35.101Z,5.6
2022-11-17T07:00:35.174Z,5.1
2022-11-17T07:05:35.120Z,6.5
2022-11-17T07:10:35.113Z,5.5
2022-11-17T07:15:35.099Z,5
2022-11-17T07:20:35.110Z,4.9
2022-11-17T07:25:35.092Z,4.9
2022-11-17T07:30:35.075Z,4.7
2022-11-17T07:35:35.127Z,4.1
2022-11-17T07:40:35.093Z,4
2022-11-17T07:45:35.115Z,3.5
2022-11-17T07:50:35.106Z,3.5
2022-11-17T07:55:35.078Z,3.5
2022-11-17T08:00:35.155Z,3.4
2022-11-17T08:05:41.625Z,3.6
2022-11-17T08:10:35.091Z,4.3
2022-11-17T08:15:35.150Z,3.1
2022-11-17T08:20:35.133Z,4
2022-11-17T08:25:35.120Z,4
2022-11-17T08:30:35.097Z,3.5
2022-11-17T08:35:37.447Z,4.5
2022-11-17T08:40:35.089Z,4.9
2022-11-17T08:45:35.124Z,4.5
2022-11-17T08:50:35.125Z,6.4
2022-11-17T08:55:40.607Z,6.4
2022-11-17T09:00:35.224Z,7.6
2022-11-17T09:05:35.125Z,7
2022-11-17T09:10:35.112Z,6.6
2022-11-17T09:15:35.098Z,7.1
2022-11-17T09:20:35.106Z,5.3
2022-11-17T09:25:35.123Z,5.3
2022-11-17T09:30:35.128Z,3.6
2022-11-17T09:35:35.125Z,3
2022-11-17T09:40:38.018Z,3.7
2022-11-17T09:45:35.124Z,3.3
2022-11-17T09:50:35.100Z,2.2
2022-11-17T09:55:35.129Z,2.2
2022-11-17T10:00:35.121Z,2.3
2022-11-17T10:05:35.123Z,2.5
2022-11-17T10:10:35.103Z,2.4
2022-11-17T10:15:35.115Z,2.5
2022-11-17T10:20:35.129Z,2.6
2022-11-17T10:25:35.114Z,2.6
2022-11-17T10:30:35.128Z,2.6
2022-11-17T10:35:35.135Z,2.3
2022-11-17T10:40:35.119Z,2.7
2022-11-17T10:45:35.112Z,3.2
2022-11-17T10:50:35.092Z,2.4
2022-11-17T10:55:35.087Z,2.4
2022-11-17T11:00:35.058Z,3.4
2022-11-17T11:05:35.178Z,2.7
2022-11-17T11:10:35.124Z,1.8
2022-11-17T11:15:35.121Z,3.3
2022-11-17T11:20:35.112Z,2.6
2022-11-17T11:25:35.124Z,2.6
2022-11-17T11:30:35.112Z,3.1
2022-11-17T11:35:35.116Z,3.5
2022-11-17T11:40:35.125Z,3.9
2022-11-17T11:45:35.115Z,4.1
2022-11-17T11:50:40.442Z,3.1
2022-11-17T11:55:35.117Z,3.1
2022-11-17T12:00:35.119Z,4.1
2022-11-17T12:05:35.138Z,3.7
2022-11-17T12:10:35.113Z,3.4
2022-11-17T12:15:35.143Z,2
2022-11-17T12:20:35.109Z,1.7
2022-11-17T12:25:35.130Z,1.7
2022-11-17T12:30:35.138Z,1.8
2022-11-17T12:35:35.149Z,1.4
2022-11-17T12:40:35.105Z,1.7
2022-11-17T12:45:40.560Z,3.4
2022-11-17T12:50:35.115Z,4.3
2022-11-17T12:55:35.162Z,4.3
2022-11-17T13:00:35.123Z,4.1
2022-11-17T13:05:35.138Z,4.8
2022-11-17T13:10:35.121Z,4.5
2022-11-17T13:15:35.140Z,4.6
2022-11-17T13:20:35.187Z,4.6
2022-11-17T13:25:35.173Z,4.6
2022-11-17T13:30:35.141Z,4.4
2022-11-17T13:35:35.161Z,5.2
2022-11-17T13:40:35.137Z,4.8
2022-11-17T13:45:35.135Z,5.1
2022-11-17T13:50:35.145Z,5.1
2022-11-17T13:55:35.147Z,4.6
2022-11-17T14:00:35.148Z,4
2022-11-17T14:05:35.135Z,4.7
2022-11-17T14:10:35.141Z,5.5
2022-11-17T14:15:35.179Z,4.2
2022-11-17T14:20:35.156Z,4.2
2022-11-17T14:25:35.130Z,3.8
2022-11-17T14:30:35.140Z,4.2
2022-11-17T14:35:35.107Z,4.1
2022-11-17T14:40:35.151Z,4.3
2022-11-17T14:45:35.154Z,4.8
2022-11-17T14:50:35.158Z,4.8
2022-11-17T14:55:35.154Z,4.9
2022-11-17T15:00:35.161Z,8.3
2022-11-17T15:05:35.135Z,4.8
2022-11-17T15:10:35.171Z,4.3
2022-11-17T15:15:35.145Z,4.1
2022-11-17T15:20:35.149Z,4.1
2022-11-17T15:25:35.133Z,3.7
2022-11-17T15:30:35.162Z,3.6
2022-11-17T15:35:35.140Z,4.5
2022-11-17T15:40:35.146Z,3.1
2022-11-17T15:45:35.142Z,4.1
2022-11-17T15:50:35.160Z,4.1
2022-11-17T15:55:35.163Z,4
2022-11-17T16:00:35.174Z,3.4
2022-11-17T16:05:35.160Z,4.9
2022-11-17T16:10:35.153Z,4.6
2022-11-17T16:15:35.140Z,4
2022-11-17T16:20:35.386Z,4
2022-11-17T16:25:35.151Z,3.9
2022-11-17T16:30:35.755Z,4.6
2022-11-17T16:35:35.111Z,4.2
2022-11-17T16:40:35.135Z,4.8
2022-11-17T16:45:35.160Z,4.8
2022-11-17T16:50:35.157Z,4.8
2022-11-17T16:55:35.167Z,5.3
2022-11-17T17:00:35.161Z,4.6
2022-11-17T17:05:35.171Z,4.2
2022-11-17T17:10:35.161Z,4.1
2022-11-17T17:15:35.161Z,4.3
2022-11-17T17:20:35.147Z,4.3
2022-11-17T17:25:35.188Z,4.1
2022-11-17T17:30:35.170Z,4.2
2022-11-17T17:35:35.224Z,3.5
2022-11-17T17:40:35.197Z,3.8
2022-11-17T17:45:35.167Z,2.7
2022-11-17T17:50:35.158Z,2.7
2022-11-17T17:55:35.195Z,3
2022-11-17T18:00:35.165Z,2.9
2022-11-17T18:05:35.158Z,1.9
2022-11-17T18:10:35.169Z,2.4
2022-11-17T18:15:35.159Z,2.6
2022-11-17T18:20:35.173Z,2.6
2022-11-17T18:25:35.172Z,2.2
2022-11-17T18:30:35.184Z,1.9
2022-11-17T18:35:35.164Z,3.4
2022-11-17T18:40:35.195Z,3.2
2022-11-17T18:45:35.175Z,3.2
2022-11-17T18:50:47.547Z,3.2
2022-11-17T18:55:35.185Z,3
2022-11-17T19:00:35.211Z,2.9
2022-11-17T19:05:35.198Z,2.9
2022-11-17T19:10:35.187Z,3.1
2022-11-17T19:15:35.194Z,2.8
2022-11-17T19:20:35.175Z,2.8
2022-11-17T19:25:35.189Z,3.2
2022-11-17T19:30:35.197Z,2.6
2022-11-17T19:35:35.195Z,2.9
2022-11-17T19:40:35.188Z,2.3
2022-11-17T19:45:35.178Z,2.4
2022-11-17T19:50:35.197Z,2.4
2022-11-17T19:55:35.249Z,1.6
2022-11-17T20:00:35.216Z,1.5
2022-11-17T20:05:35.246Z,2.2
2022-11-17T20:10:35.220Z,2.2
2022-11-17T20:15:35.292Z,1.7
2022-11-17T20:20:35.188Z,1.7
2022-11-17T20:25:35.202Z,1.2
2022-11-17T20:30:35.185Z,1.4
2022-11-17T20:35:35.213Z,1.3
2022-11-17T20:40:35.214Z,2.5
2022-11-17T20:45:35.184Z,1.5
2022-11-17T20:50:35.200Z,1.5
2022-11-17T20:55:35.194Z,1.3
2022-11-17T21:00:35.159Z,1.4
2022-11-17T21:05:35.215Z,2
2022-11-17T21:10:35.200Z,2.4
2022-11-17T21:15:35.214Z,1.8
2022-11-17T21:20:35.218Z,1.8
2022-11-17T21:25:35.211Z,2.4
2022-11-17T21:30:35.209Z,1.6
2022-11-17T21:35:35.230Z,2
2022-11-17T21:40:35.221Z,2.2
2022-11-17T21:45:35.225Z,2.4
2022-11-17T21:50:35.235Z,2.4
2022-11-17T21:55:35.255Z,2.9
2022-11-17T22:00:35.219Z,2.7
2022-11-17T22:05:35.241Z,2.4
2022-11-17T22:10:35.207Z,2.4
2022-11-17T22:15:35.229Z,3
2022-11-17T22:20:35.291Z,3
2022-11-17T22:25:45.101Z,3.1
2022-11-17T22:30:35.232Z,3
2022-11-17T22:35:35.261Z,2.8
2022-11-17T22:40:35.227Z,3.1
2022-11-17T22:45:35.221Z,2.7
2022-11-17T22:50:35.251Z,2.7
2022-11-17T22:55:35.228Z,2.7
2022-11-17T23:00:35.244Z,3
2022-11-17T23:05:35.236Z,3.3
2022-11-17T23:10:35.232Z,3.6
2022-11-17T23:15:35.226Z,3.7
2022-11-17T23:20:35.243Z,3.7
2022-11-17T23:25:35.229Z,3
2022-11-17T23:30:35.250Z,2.8
2022-11-17T23:35:35.243Z,3.2
2022-11-17T23:40:35.239Z,2.5
2022-11-17T23:45:35.244Z,3.4
2022-11-17T23:50:35.242Z,3.4
2022-11-17T23:55:35.229Z,2.9
